Donnie Sonier — WDF9285 — position and weather

sailwx.info

Track history (hours):
 
Tides and Currents Weather Stations Pressure Air Temp Water Temp Dewpoint Dewpoint Depression Visibility Wind Speed Wind Dir Waves Ship Positions

Donnie Sonier

Owner: LeBeouf Bros. Towing, LLC, Houma, LA. More information available from US FCC via Universal Licensing System and Coast Guard Vessel Documentation Center.

Last reported at 2016-Aug-25 11:06 UTC. Time now 2016-Aug-25 16:39 UTC.
Position N 29°49' W 093°59'.

Length 22 m.

Type: Tug. MMSI: 367503580.

Date/timePositionNaut miles runAvg speedWind from/ knotsBaromVisibWave heightAir tempDewpointWater temp
2016-Aug-25 11:06N 29°49' W 093°59'0 0.0
2016-Aug-25 10:20N 29°49' W 093°59'0 0.0
2016-Aug-25 07:15N 29°49' W 093°59'0 0.0
2016-Aug-25 06:30N 29°49' W 093°59'0 0.0
2016-Aug-25 04:29N 29°49' W 093°59'0 0.0
2016-Aug-25 03:27N 29°49' W 093°59'0 0.0
2016-Aug-25 02:33N 29°49' W 093°59'0 0.0
2016-Aug-25 01:24N 29°49' W 093°59'0 0.0
2016-Aug-24 13:22N 29°49' W 093°59'0 0.0
2016-Aug-24 11:32N 29°49' W 093°59'0 0.0
2016-Aug-24 09:31N 29°49' W 093°59'0 0.0
2016-Aug-24 08:06N 29°49' W 093°59'0 0.0
2016-Aug-24 06:08N 29°49' W 093°59'8 2.9
2016-Aug-24 03:25N 29°55' W 093°53'3 2.4
2016-Aug-24 02:16N 29°58' W 093°52'0 0.0
2016-Aug-24 01:28N 29°58' W 093°52'0 0.0
2016-Aug-23 13:21N 29°58' W 093°52'0 0.0
2016-Aug-23 12:33N 29°58' W 093°52'0 0.0
2016-Aug-23 07:33N 29°58' W 093°52'0 0.0
2016-Aug-23 06:33N 29°58' W 093°52'0 0.0
2016-Aug-23 05:33N 29°58' W 093°52'0 0.0
2016-Aug-23 04:33N 29°58' W 093°52'0 0.0
2016-Aug-23 03:33N 29°58' W 093°52'0 0.0
2016-Aug-23 02:30N 29°58' W 093°52'0 0.0
2016-Aug-23 01:33N 29°58' W 093°52'0 0.0
2016-Aug-23 00:33N 29°58' W 093°52'0 0.0
2016-Aug-22 23:33N 29°58' W 093°52'0 0.0
2016-Aug-22 22:33N 29°58' W 093°52'0 0.0
2016-Aug-22 21:33N 29°58' W 093°52'0 0.0
2016-Aug-22 20:31N 29°58' W 093°52'0 0.0
2016-Aug-22 14:24N 29°58' W 093°52'0 0.2
2016-Aug-22 13:26N 29°58' W 093°51'0 0.4
2016-Aug-22 12:33N 29°58' W 093°52'0 0.0
2016-Aug-22 11:33N 29°58' W 093°52'0 0.0
2016-Aug-22 10:33N 29°58' W 093°52'0 0.0
2016-Aug-22 09:21N 29°58' W 093°52'0 0.0
2016-Aug-22 07:23N 29°58' W 093°52'0 0.0
2016-Aug-22 06:04N 29°58' W 093°52'0 0.0
2016-Aug-22 05:32N 29°58' W 093°52'0 0.0
2016-Aug-22 04:16N 29°58' W 093°52'0 0.0
2016-Aug-22 03:33N 29°58' W 093°52'0 0.0
2016-Aug-22 02:29N 29°58' W 093°52'0 0.0
2016-Aug-22 01:11N 29°58' W 093°52'0 0.0
2016-Aug-21 23:03N 29°58' W 093°52'0 0.0
2016-Aug-21 20:31N 29°58' W 093°51'0 0.0
2016-Aug-21 17:30N 29°58' W 093°51'0 0.0
2016-Aug-21 13:26N 29°58' W 093°51'0 0.0
2016-Aug-21 12:33N 29°58' W 093°51'0 0.0
2016-Aug-21 11:27N 29°58' W 093°51'0 0.0
2016-Aug-21 09:21N 29°58' W 093°51'0 0.0
2016-Aug-21 07:20N 29°58' W 093°51'0 0.0
2016-Aug-21 06:33N 29°58' W 093°51'0 0.0
2016-Aug-21 05:31N 29°58' W 093°51'0 0.0
2016-Aug-21 04:25N 29°58' W 093°51'0 0.0
2016-Aug-21 03:28N 29°58' W 093°51'0 0.0
2016-Aug-21 02:33N 29°58' W 093°51'0 0.0
2016-Aug-20 19:27N 29°58' W 093°51'0 0.0
2016-Aug-20 16:22N 29°58' W 093°52'6 0.3
2016-Aug-19 17:31N 30°01' W 093°46'5 5.5
2016-Aug-19 16:33N 30°04' W 093°41'6 5.6
2016-Aug-19 15:33N 30°04' W 093°34'6 5.6
2016-Aug-19 14:33N 30°04' W 093°28'5 5.5
2016-Aug-19 13:34N 30°04' W 093°22'4 3.7
2016-Aug-19 12:34N 30°06' W 093°18'5 5.0
2016-Aug-19 11:34N 30°02' W 093°14'6 5.8
2016-Aug-19 10:33N 29°57' W 093°10'6 5.6
2016-Aug-19 09:34N 29°56' W 093°04'6 6.2
2016-Aug-19 08:33N 29°56' W 092°57'8 5.8
2016-Aug-19 07:08N 29°58' W 092°48'3 4.7
2016-Aug-19 06:25N 29°58' W 092°44'4 4.9
2016-Aug-19 05:33N 29°56' W 092°39'6 4.6
2016-Aug-19 04:15N 29°54' W 092°33'3 4.6
2016-Aug-19 03:33N 29°54' W 092°29'5 4.7
2016-Aug-19 02:33N 29°53' W 092°24'4 3.7
2016-Aug-19 01:34N 29°51' W 092°21'4 3.7
2016-Aug-19 00:33N 29°49' W 092°17'4 4.2
2016-Aug-18 23:34N 29°47' W 092°12'4 4.1
2016-Aug-18 22:33N 29°47' W 092°08'5 4.7
2016-Aug-18 21:34N 29°49' W 092°03'5 5.3
2016-Aug-18 20:34N 29°51' W 091°57'64 4.3
2016-Aug-18 05:34N 29°32' W 090°46'4 3.7
2016-Aug-18 04:33N 29°34' W 090°43'3 2.6
2016-Aug-18 03:34N 29°37' W 090°41'4 3.9
2016-Aug-18 02:34N 29°35' W 090°37'2 1.6
2016-Aug-18 01:34N 29°35' W 090°35'3 3.0
2016-Aug-18 00:33N 29°34' W 090°32'3 0.3
2016-Aug-17 12:25N 29°35' W 090°36'5 5.4
2016-Aug-17 11:34N 29°36' W 090°40'3 3.3
2016-Aug-17 10:34N 29°34' W 090°43'2 2.0
2016-Aug-17 09:34N 29°33' W 090°45'2 2.0
2016-Aug-17 08:34N 29°32' W 090°47'65 4.6
2016-Aug-16 18:26N 29°50' W 091°59'5 6.1
2016-Aug-16 17:33N 29°48' W 092°05'6 6.0
2016-Aug-16 16:34N 29°47' W 092°12'2 2.3
2016-Aug-16 15:33N 29°48' W 092°14'6 6.1
2016-Aug-16 14:34N 29°51' W 092°20'5 5.4
2016-Aug-16 13:33N 29°53' W 092°26'22 6.3
2016-Aug-16 10:08N 29°58' W 092°50'5 5.2
2016-Aug-16 09:08N 29°56' W 092°56'3 4.8
2016-Aug-16 08:33N 29°56' W 092°59'5 5.0
2016-Aug-16 07:34N 29°56' W 093°05'13 4.4
2016-Aug-16 04:34N 30°04' W 093°16'2 2.2
2016-Aug-16 03:34N 30°06' W 093°18'0 0.0
2016-Aug-16 02:34N 30°06' W 093°18'4 4.3
2016-Aug-16 01:34N 30°04' W 093°22'6 5.6
2016-Aug-16 00:34N 30°04' W 093°29'5 5.4
2016-Aug-15 23:34N 30°04' W 093°35'6 5.6
2016-Aug-15 22:34N 30°03' W 093°41'6 6.2
2016-Aug-15 21:33N 29°60' W 093°47'  
Track history (hours):
 
Tides and Currents Weather Stations Pressure Air Temp Water Temp Dewpoint Dewpoint Depression Visibility Wind Speed Wind Dir Waves Ship Positions

Donnie Sonier

Owner: LeBeouf Bros. Towing, LLC, Houma, LA. More information available from US FCC via Universal Licensing System and Coast Guard Vessel Documentation Center.

Last reported at 2016-Aug-25 11:06 UTC. Time now 2016-Aug-25 16:39 UTC.
Position N 29°49' W 093°59'.

Length 22 m.

Type: Tug. MMSI: 367503580.

Date/timePositionNaut miles runAvg speedWind from/ knotsBaromVisibWave heightAir tempDewpointWater temp
2016-Aug-25 11:06N 29°49' W 093°59'0 0.0
2016-Aug-25 10:20N 29°49' W 093°59'0 0.0
2016-Aug-25 07:15N 29°49' W 093°59'0 0.0
2016-Aug-25 06:30N 29°49' W 093°59'0 0.0
2016-Aug-25 04:29N 29°49' W 093°59'0 0.0
2016-Aug-25 03:27N 29°49' W 093°59'0 0.0
2016-Aug-25 02:33N 29°49' W 093°59'0 0.0
2016-Aug-25 01:24N 29°49' W 093°59'0 0.0
2016-Aug-24 13:22N 29°49' W 093°59'0 0.0
2016-Aug-24 11:32N 29°49' W 093°59'0 0.0
2016-Aug-24 09:31N 29°49' W 093°59'0 0.0
2016-Aug-24 08:06N 29°49' W 093°59'0 0.0
2016-Aug-24 06:08N 29°49' W 093°59'8 2.9
2016-Aug-24 03:25N 29°55' W 093°53'3 2.4
2016-Aug-24 02:16N 29°58' W 093°52'0 0.0
2016-Aug-24 01:28N 29°58' W 093°52'0 0.0
2016-Aug-23 13:21N 29°58' W 093°52'0 0.0
2016-Aug-23 12:33N 29°58' W 093°52'0 0.0
2016-Aug-23 07:33N 29°58' W 093°52'0 0.0
2016-Aug-23 06:33N 29°58' W 093°52'0 0.0
2016-Aug-23 05:33N 29°58' W 093°52'0 0.0
2016-Aug-23 04:33N 29°58' W 093°52'0 0.0
2016-Aug-23 03:33N 29°58' W 093°52'0 0.0
2016-Aug-23 02:30N 29°58' W 093°52'0 0.0
2016-Aug-23 01:33N 29°58' W 093°52'0 0.0
2016-Aug-23 00:33N 29°58' W 093°52'0 0.0
2016-Aug-22 23:33N 29°58' W 093°52'0 0.0
2016-Aug-22 22:33N 29°58' W 093°52'0 0.0
2016-Aug-22 21:33N 29°58' W 093°52'0 0.0
2016-Aug-22 20:31N 29°58' W 093°52'0 0.0
2016-Aug-22 14:24N 29°58' W 093°52'0 0.2
2016-Aug-22 13:26N 29°58' W 093°51'0 0.4
2016-Aug-22 12:33N 29°58' W 093°52'0 0.0
2016-Aug-22 11:33N 29°58' W 093°52'0 0.0
2016-Aug-22 10:33N 29°58' W 093°52'0 0.0
2016-Aug-22 09:21N 29°58' W 093°52'0 0.0
2016-Aug-22 07:23N 29°58' W 093°52'0 0.0
2016-Aug-22 06:04N 29°58' W 093°52'0 0.0
2016-Aug-22 05:32N 29°58' W 093°52'0 0.0
2016-Aug-22 04:16N 29°58' W 093°52'0 0.0
2016-Aug-22 03:33N 29°58' W 093°52'0 0.0
2016-Aug-22 02:29N 29°58' W 093°52'0 0.0
2016-Aug-22 01:11N 29°58' W 093°52'0 0.0
2016-Aug-21 23:03N 29°58' W 093°52'0 0.0
2016-Aug-21 20:31N 29°58' W 093°51'0 0.0
2016-Aug-21 17:30N 29°58' W 093°51'0 0.0
2016-Aug-21 13:26N 29°58' W 093°51'0 0.0
2016-Aug-21 12:33N 29°58' W 093°51'0 0.0
2016-Aug-21 11:27N 29°58' W 093°51'0 0.0
2016-Aug-21 09:21N 29°58' W 093°51'0 0.0
2016-Aug-21 07:20N 29°58' W 093°51'0 0.0
2016-Aug-21 06:33N 29°58' W 093°51'0 0.0
2016-Aug-21 05:31N 29°58' W 093°51'0 0.0
2016-Aug-21 04:25N 29°58' W 093°51'0 0.0
2016-Aug-21 03:28N 29°58' W 093°51'0 0.0
2016-Aug-21 02:33N 29°58' W 093°51'0 0.0
2016-Aug-20 19:27N 29°58' W 093°51'0 0.0
2016-Aug-20 16:22N 29°58' W 093°52'6 0.3
2016-Aug-19 17:31N 30°01' W 093°46'5 5.5
2016-Aug-19 16:33N 30°04' W 093°41'6 5.6
2016-Aug-19 15:33N 30°04' W 093°34'6 5.6
2016-Aug-19 14:33N 30°04' W 093°28'5 5.5
2016-Aug-19 13:34N 30°04' W 093°22'4 3.7
2016-Aug-19 12:34N 30°06' W 093°18'5 5.0
2016-Aug-19 11:34N 30°02' W 093°14'6 5.8
2016-Aug-19 10:33N 29°57' W 093°10'6 5.6
2016-Aug-19 09:34N 29°56' W 093°04'6 6.2
2016-Aug-19 08:33N 29°56' W 092°57'8 5.8
2016-Aug-19 07:08N 29°58' W 092°48'3 4.7
2016-Aug-19 06:25N 29°58' W 092°44'4 4.9
2016-Aug-19 05:33N 29°56' W 092°39'6 4.6
2016-Aug-19 04:15N 29°54' W 092°33'3 4.6
2016-Aug-19 03:33N 29°54' W 092°29'5 4.7
2016-Aug-19 02:33N 29°53' W 092°24'4 3.7
2016-Aug-19 01:34N 29°51' W 092°21'4 3.7
2016-Aug-19 00:33N 29°49' W 092°17'4 4.2
2016-Aug-18 23:34N 29°47' W 092°12'4 4.1
2016-Aug-18 22:33N 29°47' W 092°08'5 4.7
2016-Aug-18 21:34N 29°49' W 092°03'5 5.3
2016-Aug-18 20:34N 29°51' W 091°57'64 4.3
2016-Aug-18 05:34N 29°32' W 090°46'4 3.7
2016-Aug-18 04:33N 29°34' W 090°43'3 2.6
2016-Aug-18 03:34N 29°37' W 090°41'4 3.9
2016-Aug-18 02:34N 29°35' W 090°37'2 1.6
2016-Aug-18 01:34N 29°35' W 090°35'3 3.0
2016-Aug-18 00:33N 29°34' W 090°32'3 0.3
2016-Aug-17 12:25N 29°35' W 090°36'5 5.4
2016-Aug-17 11:34N 29°36' W 090°40'3 3.3
2016-Aug-17 10:34N 29°34' W 090°43'2 2.0
2016-Aug-17 09:34N 29°33' W 090°45'2 2.0
2016-Aug-17 08:34N 29°32' W 090°47'65 4.6
2016-Aug-16 18:26N 29°50' W 091°59'5 6.1
2016-Aug-16 17:33N 29°48' W 092°05'6 6.0
2016-Aug-16 16:34N 29°47' W 092°12'2 2.3
2016-Aug-16 15:33N 29°48' W 092°14'6 6.1
2016-Aug-16 14:34N 29°51' W 092°20'5 5.4
2016-Aug-16 13:33N 29°53' W 092°26'22 6.3
2016-Aug-16 10:08N 29°58' W 092°50'5 5.2
2016-Aug-16 09:08N 29°56' W 092°56'3 4.8
2016-Aug-16 08:33N 29°56' W 092°59'5 5.0
2016-Aug-16 07:34N 29°56' W 093°05'13 4.4
2016-Aug-16 04:34N 30°04' W 093°16'2 2.2
2016-Aug-16 03:34N 30°06' W 093°18'0 0.0
2016-Aug-16 02:34N 30°06' W 093°18'4 4.3
2016-Aug-16 01:34N 30°04' W 093°22'6 5.6
2016-Aug-16 00:34N 30°04' W 093°29'5 5.4
2016-Aug-15 23:34N 30°04' W 093°35'6 5.6
2016-Aug-15 22:34N 30°03' W 093°41'6 6.2
2016-Aug-15 21:33N 29°60' W 093°47'  

Dump ship's entire track history